createdAt,value
2023-06-15T00:02:20.078Z,5.50
2023-06-15T00:04:47.915Z,6.00
2023-06-15T00:07:15.692Z,7.50
2023-06-15T00:09:44.149Z,6.00
2023-06-15T00:12:11.795Z,4.00
2023-06-15T00:14:39.483Z,7.00
2023-06-15T00:17:09.545Z,8.25
2023-06-15T00:19:37.495Z,5.75
2023-06-15T00:22:05.904Z,7.00
2023-06-15T00:24:33.714Z,7.00
2023-06-15T00:27:01.420Z,3.75
2023-06-15T00:29:29.039Z,6.00
2023-06-15T00:31:57.151Z,8.50
2023-06-15T00:34:25.171Z,6.75
2023-06-15T00:36:52.755Z,6.00
2023-06-15T00:39:20.769Z,6.75
2023-06-15T00:41:48.613Z,9.00
2023-06-15T00:44:16.183Z,6.75
2023-06-15T00:46:43.813Z,7.00
2023-06-15T00:49:11.458Z,9.00
2023-06-15T00:51:39.981Z,6.50
2023-06-15T00:54:08.649Z,9.00
2023-06-15T00:56:36.266Z,9.00
2023-06-15T00:59:04.302Z,6.25
2023-06-15T01:01:31.986Z,8.25
2023-06-15T01:04:01.510Z,8.00
2023-06-15T01:06:32.507Z,6.25
2023-06-15T01:09:00.076Z,6.00
2023-06-15T01:11:29.716Z,6.00
2023-06-15T01:13:58.845Z,8.50
2023-06-15T01:16:26.991Z,6.25
2023-06-15T01:18:57.637Z,6.25
2023-06-15T01:21:25.344Z,8.00
2023-06-15T01:23:53.007Z,3.75
2023-06-15T01:26:22.114Z,7.00
2023-06-15T01:28:50.811Z,7.00
2023-06-15T01:31:18.661Z,5.50
2023-06-15T01:33:46.623Z,6.25
2023-06-15T01:36:14.591Z,8.75
2023-06-15T01:38:42.656Z,7.00
2023-06-15T01:41:10.277Z,6.50
2023-06-15T01:43:37.915Z,6.00
2023-06-15T01:46:05.651Z,4.00
2023-06-15T01:48:33.694Z,3.50
2023-06-15T01:51:01.453Z,6.00
2023-06-15T01:53:29.041Z,4.00
2023-06-15T01:55:56.821Z,5.50
2023-06-15T01:58:24.405Z,6.00
2023-06-15T02:00:52.816Z,6.50
2023-06-15T02:03:20.543Z,5.00
2023-06-15T02:05:48.202Z,6.75
2023-06-15T02:08:15.861Z,6.00
2023-06-15T02:10:43.532Z,7.00
2023-06-15T02:13:11.567Z,8.50
2023-06-15T02:15:40.152Z,10.00
2023-06-15T02:18:13.732Z,9.00
2023-06-15T02:20:41.682Z,9.00
2023-06-15T02:23:09.476Z,8.00
2023-06-15T02:25:37.502Z,9.50
2023-06-15T02:28:05.070Z,6.00
2023-06-15T02:30:32.669Z,6.50
2023-06-15T02:33:01.910Z,8.00
2023-06-15T02:35:29.726Z,7.50
2023-06-15T02:37:57.752Z,9.00
2023-06-15T02:40:25.431Z,7.00
2023-06-15T02:42:53.044Z,6.50
2023-06-15T02:45:22.223Z,8.00
2023-06-15T02:47:49.908Z,9.00
2023-06-15T02:50:19.421Z,6.00
2023-06-15T02:52:48.026Z,9.75
2023-06-15T02:55:15.956Z,6.75
2023-06-15T02:57:43.870Z,7.00
2023-06-15T03:00:15.163Z,7.00
2023-06-15T03:02:44.748Z,6.50
2023-06-15T03:05:12.476Z,6.50
2023-06-15T03:07:41.938Z,6.00
2023-06-15T03:10:09.779Z,6.50
2023-06-15T03:12:37.407Z,8.00
2023-06-15T03:15:05.431Z,4.00
2023-06-15T03:17:34.113Z,9.00
2023-06-15T03:20:01.902Z,9.00
2023-06-15T03:22:29.624Z,6.00
2023-06-15T03:24:57.268Z,5.50
2023-06-15T03:27:24.942Z,6.75
2023-06-15T03:29:53.030Z,9.00
2023-06-15T03:32:21.349Z,9.75
2023-06-15T03:34:49.322Z,8.50
2023-06-15T03:37:16.934Z,9.00
2023-06-15T03:39:44.937Z,7.00
2023-06-15T03:42:12.559Z,9.00
2023-06-15T03:44:40.164Z,9.00
2023-06-15T03:47:07.966Z,10.00
2023-06-15T03:49:35.840Z,4.50
2023-06-15T03:52:03.830Z,7.00
2023-06-15T03:54:31.504Z,6.50
2023-06-15T03:56:59.085Z,7.50
2023-06-15T03:59:26.876Z,3.75
2023-06-15T04:01:54.516Z,6.75
2023-06-15T04:04:22.556Z,7.00
2023-06-15T04:06:54.313Z,8.00
2023-06-15T04:09:22.444Z,6.00
2023-06-15T04:11:50.035Z,7.00
2023-06-15T04:14:19.381Z,9.00
2023-06-15T04:16:47.456Z,10.00
2023-06-15T04:19:15.418Z,8.00
2023-06-15T04:21:43.030Z,9.00
2023-06-15T04:24:10.914Z,9.25
2023-06-15T04:26:38.570Z,8.50
2023-06-15T04:29:06.577Z,9.50
2023-06-15T04:31:35.170Z,9.50
2023-06-15T04:34:06.016Z,10.00
2023-06-15T04:36:35.972Z,7.00
2023-06-15T04:39:04.029Z,7.00
2023-06-15T04:41:32.530Z,9.00
2023-06-15T04:44:00.236Z,9.25
2023-06-15T04:46:29.288Z,7.00
2023-06-15T04:48:57.676Z,11.00
2023-06-15T04:51:25.349Z,9.75
2023-06-15T04:53:53.340Z,5.00
2023-06-15T04:56:22.525Z,9.50
2023-06-15T04:58:50.312Z,5.00
2023-06-15T05:01:17.973Z,12.25
2023-06-15T05:03:45.754Z,9.25
2023-06-15T05:06:14.103Z,9.00
2023-06-15T05:08:41.781Z,10.50
2023-06-15T05:11:09.411Z,9.50
2023-06-15T05:13:37.169Z,12.75
2023-06-15T05:16:04.830Z,10.50
2023-06-15T05:18:33.405Z,12.00
2023-06-15T05:21:01.235Z,11.50
2023-06-15T05:23:30.169Z,11.00
2023-06-15T05:25:58.104Z,10.50
2023-06-15T05:28:28.241Z,12.00
2023-06-15T05:30:56.486Z,12.00
2023-06-15T05:33:24.239Z,11.00
2023-06-15T05:35:52.076Z,11.75
2023-06-15T05:38:21.621Z,11.00
2023-06-15T05:40:49.838Z,12.00
2023-06-15T05:43:17.754Z,10.00
2023-06-15T05:48:13.427Z,12.00
2023-06-15T05:50:41.335Z,12.50
2023-06-15T05:53:09.010Z,12.75
2023-06-15T05:55:36.908Z,11.25
2023-06-15T05:58:04.712Z,12.50
2023-06-15T06:00:33.074Z,12.50
2023-06-15T06:03:02.840Z,12.00
2023-06-15T06:05:31.387Z,11.50
2023-06-15T06:07:59.427Z,15.75
2023-06-15T06:10:27.145Z,13.00
2023-06-15T06:12:55.078Z,16.00
2023-06-15T06:15:23.381Z,10.00
2023-06-15T06:18:07.928Z,12.75
2023-06-15T06:20:38.210Z,17.00
2023-06-15T06:23:06.051Z,11.00
2023-06-15T06:25:34.050Z,16.00
2023-06-15T06:28:01.976Z,13.50
2023-06-15T06:30:29.801Z,9.20
2023-06-15T06:33:00.611Z,11.25
2023-06-15T06:35:29.533Z,12.20
2023-06-15T06:37:57.686Z,15.80
2023-06-15T06:40:27.081Z,14.60
2023-06-15T06:42:55.032Z,15.20
2023-06-15T06:45:23.615Z,15.20
2023-06-15T06:47:51.622Z,13.40
2023-06-15T06:50:19.858Z,13.00
2023-06-15T06:52:47.664Z,5.20
2023-06-15T06:55:15.881Z,10.40
2023-06-15T06:57:44.384Z,13.60
2023-06-15T07:00:12.313Z,16.80
2023-06-15T07:02:40.434Z,11.80
2023-06-15T07:05:08.453Z,14.00
2023-06-15T07:07:36.579Z,15.40
2023-06-15T07:10:05.044Z,15.80
2023-06-15T07:12:32.956Z,13.60
2023-06-15T07:15:00.711Z,17.40
2023-06-15T07:17:28.523Z,11.40
2023-06-15T07:19:56.527Z,11.40
2023-06-15T07:22:25.589Z,12.00
2023-06-15T07:24:53.487Z,11.60
2023-06-15T07:27:21.911Z,10.20
2023-06-15T07:29:50.327Z,12.40
2023-06-15T07:32:18.123Z,11.60
2023-06-15T07:34:46.641Z,10.00
2023-06-15T07:37:14.590Z,9.40
2023-06-15T07:39:42.875Z,13.40
2023-06-15T07:42:10.868Z,8.80
2023-06-15T07:44:38.877Z,9.00
2023-06-15T07:47:08.070Z,11.60
2023-06-15T07:49:45.705Z,7.80
2023-06-15T07:52:14.744Z,8.00
2023-06-15T07:54:43.427Z,8.40
2023-06-15T07:57:11.877Z,9.00
2023-06-15T07:59:39.771Z,9.00
2023-06-15T08:02:07.818Z,8.40
2023-06-15T08:04:35.868Z,6.00
2023-06-15T08:07:03.694Z,9.80
2023-06-15T08:09:32.183Z,8.80
2023-06-15T08:12:01.544Z,8.00
2023-06-15T08:14:29.587Z,9.00
2023-06-15T08:16:58.003Z,8.80
2023-06-15T08:19:26.657Z,9.00
2023-06-15T08:21:55.149Z,8.00
2023-06-15T08:24:23.353Z,7.80
2023-06-15T08:26:51.370Z,7.80
2023-06-15T08:29:23.990Z,9.00
2023-06-15T08:31:53.010Z,7.60
2023-06-15T08:34:21.286Z,8.60
2023-06-15T08:36:50.730Z,6.00
2023-06-15T08:39:19.118Z,9.40
2023-06-15T08:41:47.076Z,9.00
2023-06-15T08:44:15.061Z,9.20
2023-06-15T08:46:44.217Z,9.40
2023-06-15T08:49:12.180Z,9.00
2023-06-15T08:51:39.936Z,8.20
2023-06-15T08:54:09.951Z,8.20
2023-06-15T08:56:39.739Z,6.80
2023-06-15T08:59:08.456Z,7.60
2023-06-15T09:01:41.181Z,5.40
2023-06-15T09:04:09.151Z,8.40
2023-06-15T09:06:37.255Z,7.60
2023-06-15T09:09:05.588Z,7.20
2023-06-15T09:11:34.384Z,6.80
2023-06-15T09:14:02.256Z,6.00
2023-06-15T09:16:30.534Z,7.80
2023-06-15T09:18:58.723Z,7.00
2023-06-15T09:21:27.795Z,10.80
2023-06-15T09:23:56.187Z,9.00
2023-06-15T09:26:24.578Z,7.80
2023-06-15T09:28:53.786Z,9.60
2023-06-15T09:31:21.860Z,9.00
2023-06-15T09:33:51.984Z,9.20
2023-06-15T09:36:20.915Z,8.00
2023-06-15T09:38:49.953Z,8.60
2023-06-15T09:41:18.184Z,10.20
2023-06-15T09:43:46.168Z,8.40
2023-06-15T09:46:14.289Z,9.00
2023-06-15T09:48:42.469Z,7.00
2023-06-15T09:51:10.379Z,8.00
2023-06-15T09:53:38.940Z,8.00
2023-06-15T09:56:17.208Z,11.60
2023-06-15T09:58:55.362Z,7.80
2023-06-15T10:01:23.511Z,8.40
2023-06-15T10:03:53.953Z,8.00
2023-06-15T10:06:22.291Z,8.00
2023-06-15T10:08:53.061Z,9.40
2023-06-15T10:11:21.051Z,4.20
2023-06-15T10:13:49.101Z,9.80
2023-06-15T10:16:18.085Z,8.80
2023-06-15T10:18:45.926Z,7.00
2023-06-15T10:21:14.014Z,8.20
2023-06-15T10:23:45.037Z,9.80
2023-06-15T10:26:12.968Z,9.40
2023-06-15T10:28:43.591Z,3.40
2023-06-15T10:31:11.413Z,9.00
2023-06-15T10:33:39.308Z,6.40
2023-06-15T10:36:07.309Z,5.00
2023-06-15T10:38:37.785Z,6.40
2023-06-15T10:41:06.483Z,7.40
2023-06-15T10:43:34.558Z,7.00
2023-06-15T10:46:03.848Z,6.40
2023-06-15T10:48:31.873Z,6.00
2023-06-15T10:50:59.873Z,8.00
2023-06-15T10:53:27.963Z,7.80
2023-06-15T10:55:56.789Z,7.60
2023-06-15T10:58:25.958Z,8.00
2023-06-15T11:00:55.953Z,9.00
2023-06-15T11:03:24.045Z,7.60
2023-06-15T11:05:52.201Z,8.00
2023-06-15T11:08:20.165Z,8.60
2023-06-15T11:10:48.137Z,10.00
2023-06-15T11:13:16.545Z,8.00
2023-06-15T11:15:44.503Z,11.80
2023-06-15T11:18:13.090Z,10.20
2023-06-15T11:20:41.320Z,10.20
2023-06-15T11:23:11.441Z,6.00
2023-06-15T11:25:40.125Z,11.20
2023-06-15T11:28:11.496Z,9.60
2023-06-15T11:30:41.181Z,12.00
2023-06-15T11:33:09.411Z,11.00
2023-06-15T11:35:37.453Z,9.20
2023-06-15T11:38:05.732Z,10.00
2023-06-15T11:40:33.715Z,9.60
2023-06-15T11:43:02.025Z,9.60
2023-06-15T11:45:29.981Z,8.80
2023-06-15T11:47:57.946Z,11.40
2023-06-15T11:50:26.191Z,8.00
2023-06-15T11:52:54.081Z,8.40
2023-06-15T11:55:22.093Z,9.00
2023-06-15T11:57:49.958Z,8.60
2023-06-15T12:00:18.163Z,8.20
2023-06-15T12:02:46.884Z,11.00
2023-06-15T12:05:15.270Z,9.60
2023-06-15T12:07:44.108Z,8.80
2023-06-15T12:10:13.352Z,10.00
2023-06-15T12:12:41.390Z,12.20
2023-06-15T12:15:09.522Z,10.40
2023-06-15T12:17:37.713Z,8.00
2023-06-15T12:20:10.099Z,8.80
2023-06-15T12:22:38.411Z,9.60
2023-06-15T12:25:06.456Z,10.00
2023-06-15T12:27:35.609Z,8.80
2023-06-15T12:30:05.102Z,6.60
2023-06-15T12:32:33.582Z,10.40
2023-06-15T12:35:01.575Z,11.00
2023-06-15T12:37:38.943Z,11.00
2023-06-15T12:40:14.835Z,11.80
2023-06-15T12:42:43.114Z,11.80
2023-06-15T12:45:11.372Z,9.00
2023-06-15T12:47:39.797Z,12.80
2023-06-15T12:50:08.067Z,10.80
2023-06-15T12:52:37.803Z,14.00
2023-06-15T12:55:06.206Z,9.60
2023-06-15T12:57:34.219Z,11.20
2023-06-15T13:00:02.205Z,10.40
2023-06-15T13:02:30.345Z,7.40
2023-06-15T13:05:02.656Z,9.40
2023-06-15T13:07:32.576Z,8.40
2023-06-15T13:10:00.755Z,9.00
2023-06-15T13:12:28.650Z,10.20
2023-06-15T13:14:56.676Z,10.40
2023-06-15T13:17:25.160Z,7.40
2023-06-15T13:19:53.473Z,10.00
2023-06-15T13:22:21.328Z,7.00
2023-06-15T13:24:49.393Z,8.60
2023-06-15T13:27:19.100Z,9.40
2023-06-15T13:29:49.628Z,7.60
2023-06-15T13:32:18.256Z,7.20
2023-06-15T13:34:46.273Z,8.80
2023-06-15T13:37:17.563Z,8.00
2023-06-15T13:39:45.918Z,10.00
2023-06-15T13:42:14.992Z,9.40
2023-06-15T13:44:43.193Z,8.20
2023-06-15T13:47:11.083Z,8.00
2023-06-15T13:49:39.070Z,8.60
2023-06-15T13:52:06.873Z,8.60
2023-06-15T13:54:35.022Z,9.00
2023-06-15T13:57:03.291Z,9.00
2023-06-15T13:59:32.027Z,11.20
2023-06-15T14:02:00.148Z,9.60
2023-06-15T14:04:31.169Z,10.00
2023-06-15T14:07:00.649Z,5.80
2023-06-15T14:09:28.740Z,8.00
2023-06-15T14:11:59.176Z,9.00
2023-06-15T14:14:27.139Z,10.00
2023-06-15T14:16:55.215Z,10.00
2023-06-15T14:19:23.611Z,10.00
2023-06-15T14:21:52.044Z,10.60
2023-06-15T14:24:20.724Z,8.40
2023-06-15T14:26:48.709Z,10.60
2023-06-15T14:29:17.047Z,10.00
2023-06-15T14:31:47.814Z,11.00
2023-06-15T14:34:17.899Z,9.60
2023-06-15T14:36:46.439Z,11.00
2023-06-15T14:39:14.586Z,10.00
2023-06-15T14:41:42.388Z,10.00
2023-06-15T14:44:10.801Z,10.00
2023-06-15T14:46:41.042Z,13.40
2023-06-15T14:49:08.930Z,12.00
2023-06-15T14:51:37.312Z,11.60
2023-06-15T14:54:05.557Z,8.40
2023-06-15T14:56:34.446Z,9.40
2023-06-15T14:59:02.477Z,9.00
2023-06-15T15:01:30.632Z,9.60
2023-06-15T15:03:58.613Z,11.00
2023-06-15T15:06:26.545Z,10.20
2023-06-15T15:08:54.600Z,9.80
2023-06-15T15:11:22.899Z,11.40
2023-06-15T15:13:50.828Z,11.20
2023-06-15T15:16:21.595Z,10.40
2023-06-15T15:18:52.380Z,8.40
2023-06-15T15:21:20.831Z,10.80
2023-06-15T15:23:48.970Z,10.00
2023-06-15T15:26:17.009Z,10.60
2023-06-15T15:28:44.855Z,10.80
2023-06-15T15:31:12.950Z,12.00
2023-06-15T15:33:41.223Z,9.40
2023-06-15T15:36:09.360Z,10.40
2023-06-15T15:38:38.200Z,9.60
2023-06-15T15:41:06.913Z,9.20
2023-06-15T15:43:34.870Z,10.60
2023-06-15T15:46:03.595Z,9.80
2023-06-15T15:48:31.902Z,11.00
2023-06-15T15:50:59.907Z,8.60
2023-06-15T15:53:27.944Z,9.60
2023-06-15T15:55:56.002Z,9.00
2023-06-15T15:58:23.900Z,9.00
2023-06-15T16:00:52.542Z,12.20
2023-06-15T16:03:20.884Z,9.40
2023-06-15T16:05:48.881Z,9.00
2023-06-15T16:08:16.987Z,8.40
2023-06-15T16:10:45.834Z,9.00
2023-06-15T16:13:14.158Z,9.20
2023-06-15T16:15:42.319Z,9.60
2023-06-15T16:18:11.264Z,9.40
2023-06-15T16:20:39.291Z,8.40
2023-06-15T16:23:07.872Z,8.00
2023-06-15T16:25:37.192Z,9.00
2023-06-15T16:28:05.266Z,9.60
2023-06-15T16:30:33.202Z,9.00
2023-06-15T16:33:01.243Z,7.40
2023-06-15T16:35:29.847Z,8.00
2023-06-15T16:37:57.848Z,8.20
2023-06-15T16:40:25.813Z,6.60
2023-06-15T16:42:53.742Z,6.00
2023-06-15T16:45:21.758Z,7.40
2023-06-15T16:47:50.498Z,9.60
2023-06-15T16:50:19.189Z,8.20
2023-06-15T16:52:48.323Z,8.80
2023-06-15T16:55:16.561Z,9.20
2023-06-15T16:57:44.498Z,9.00
2023-06-15T17:00:12.741Z,8.00
2023-06-15T17:02:41.602Z,8.80
2023-06-15T17:05:09.639Z,8.00
2023-06-15T17:07:37.646Z,4.40
2023-06-15T17:10:06.137Z,8.00
2023-06-15T17:12:37.138Z,7.60
2023-06-15T17:15:05.507Z,5.40
2023-06-15T17:17:33.526Z,8.00
2023-06-15T17:20:01.507Z,7.80
2023-06-15T17:22:29.463Z,9.20
2023-06-15T17:24:59.462Z,8.20
2023-06-15T17:27:27.412Z,7.80
2023-06-15T17:29:55.661Z,4.00
2023-06-15T17:32:23.949Z,6.80
2023-06-15T17:34:53.741Z,7.00
2023-06-15T17:37:22.619Z,5.20
2023-06-15T17:39:51.403Z,6.20
2023-06-15T17:42:19.355Z,6.00
2023-06-15T17:44:47.233Z,9.20
2023-06-15T17:47:15.242Z,8.40
2023-06-15T17:49:43.233Z,7.60
2023-06-15T17:52:11.771Z,6.00
2023-06-15T17:54:40.097Z,6.80
2023-06-15T17:57:08.040Z,7.00
2023-06-15T17:59:35.977Z,5.00
2023-06-15T18:02:05.976Z,6.40
2023-06-15T18:04:33.999Z,6.20
2023-06-15T18:07:05.201Z,5.40
2023-06-15T18:09:33.143Z,6.60
2023-06-15T18:12:01.055Z,6.20
2023-06-15T18:14:29.258Z,5.40
2023-06-15T18:16:58.560Z,5.00
2023-06-15T18:19:26.466Z,5.00
2023-06-15T18:21:54.399Z,2.00
2023-06-15T18:24:22.712Z,5.00
2023-06-15T18:26:51.190Z,5.80
2023-06-15T18:29:19.575Z,5.00
2023-06-15T18:31:47.494Z,6.00
2023-06-15T18:34:16.509Z,5.20
2023-06-15T18:36:44.497Z,7.40
2023-06-15T18:39:13.222Z,5.40
2023-06-15T18:41:41.138Z,6.20
2023-06-15T18:44:08.985Z,1.60
2023-06-15T18:46:37.866Z,7.00
2023-06-15T18:49:05.793Z,6.00
2023-06-15T18:51:34.176Z,6.60
2023-06-15T18:54:02.056Z,6.00
2023-06-15T18:56:30.022Z,5.00
2023-06-15T18:58:58.155Z,5.20
2023-06-15T19:01:26.589Z,7.20
2023-06-15T19:03:55.075Z,5.80
2023-06-15T19:06:23.028Z,7.20
2023-06-15T19:08:50.996Z,5.20
2023-06-15T19:11:18.862Z,4.80
2023-06-15T19:13:47.278Z,5.80
2023-06-15T19:16:15.664Z,7.80
2023-06-15T19:18:44.097Z,6.00
2023-06-15T19:21:12.196Z,6.00
2023-06-15T19:23:40.129Z,2.40
2023-06-15T19:26:08.283Z,5.40
2023-06-15T19:28:38.318Z,6.40
2023-06-15T19:31:06.412Z,5.40
2023-06-15T19:33:34.283Z,6.00
2023-06-15T19:36:02.198Z,6.40
2023-06-15T19:38:30.160Z,5.00
2023-06-15T19:40:58.433Z,7.60
2023-06-15T19:43:28.477Z,7.60
2023-06-15T19:46:00.867Z,5.80
2023-06-15T19:48:28.872Z,6.20
2023-06-15T19:50:58.939Z,5.00
2023-06-15T19:53:28.355Z,5.00
2023-06-15T19:55:56.180Z,6.80
2023-06-15T19:58:24.156Z,6.00
2023-06-15T20:00:54.814Z,6.20
2023-06-15T20:03:22.858Z,7.40
2023-06-15T20:05:51.075Z,8.60
2023-06-15T20:08:19.005Z,8.40
2023-06-15T20:10:46.763Z,7.00
2023-06-15T20:13:14.698Z,7.00
2023-06-15T20:15:43.208Z,4.20
2023-06-15T20:18:11.076Z,8.00
2023-06-15T20:20:39.114Z,5.40
2023-06-15T20:23:08.369Z,7.00
2023-06-15T20:25:36.884Z,7.60
2023-06-15T20:28:05.739Z,6.60
2023-06-15T20:30:33.963Z,5.80
2023-06-15T20:33:01.903Z,5.80
2023-06-15T20:35:30.675Z,7.20
2023-06-15T20:37:58.620Z,8.40
2023-06-15T20:40:26.815Z,7.00
2023-06-15T20:42:55.121Z,5.40
2023-06-15T20:45:24.843Z,6.60
2023-06-15T20:47:52.839Z,7.00
2023-06-15T20:50:23.719Z,7.00
2023-06-15T20:52:52.124Z,8.00
2023-06-15T20:55:21.153Z,5.00
2023-06-15T20:57:49.141Z,8.00
2023-06-15T21:00:19.509Z,7.60
2023-06-15T21:02:47.604Z,6.20
2023-06-15T21:05:16.214Z,7.20
2023-06-15T21:07:44.098Z,5.00
2023-06-15T21:10:12.445Z,7.60
2023-06-15T21:12:40.444Z,8.00
2023-06-15T21:15:08.346Z,7.40
2023-06-15T21:17:36.775Z,7.20
2023-06-15T21:20:05.000Z,8.60
2023-06-15T21:22:32.875Z,8.20
2023-06-15T21:25:00.866Z,7.00
2023-06-15T21:27:28.795Z,7.00
2023-06-15T21:29:57.388Z,7.00
2023-06-15T21:32:26.980Z,6.80
2023-06-15T21:34:55.273Z,8.00
2023-06-15T21:37:23.161Z,7.25
2023-06-15T21:39:51.101Z,9.00
2023-06-15T21:42:20.427Z,10.25
2023-06-15T21:44:49.695Z,8.80
2023-06-15T21:47:17.503Z,10.00
2023-06-15T21:49:45.475Z,7.40
2023-06-15T21:52:14.616Z,9.00
2023-06-15T21:54:43.266Z,8.80
2023-06-15T21:57:13.334Z,9.75
2023-06-15T21:59:41.089Z,7.00
2023-06-15T22:02:08.881Z,9.40
2023-06-15T22:04:36.782Z,7.00
2023-06-15T22:07:04.935Z,8.00
2023-06-15T22:09:34.506Z,9.20
2023-06-15T22:12:06.914Z,7.00
2023-06-15T22:14:35.627Z,7.80
2023-06-15T22:17:03.540Z,5.20
2023-06-15T22:19:31.713Z,7.20
2023-06-15T22:22:01.767Z,7.00
2023-06-15T22:24:29.769Z,7.25
2023-06-15T22:26:57.721Z,8.60
2023-06-15T22:29:25.439Z,7.00
2023-06-15T22:31:53.256Z,4.80
2023-06-15T22:34:21.248Z,8.20
2023-06-15T22:36:49.320Z,9.00
2023-06-15T22:39:17.072Z,7.00
2023-06-15T22:41:44.941Z,7.00
2023-06-15T22:44:15.576Z,7.00
2023-06-15T22:46:45.192Z,0.50
2023-06-15T22:49:13.880Z,9.20
2023-06-15T22:51:45.465Z,7.00
2023-06-15T22:54:13.306Z,8.00
2023-06-15T22:56:42.272Z,6.00
2023-06-15T22:59:09.960Z,9.00
2023-06-15T23:01:37.654Z,9.00
2023-06-15T23:04:05.666Z,9.00
2023-06-15T23:06:43.187Z,10.50
2023-06-15T23:09:14.101Z,6.25
2023-06-15T23:11:41.864Z,6.00
2023-06-15T23:14:10.221Z,8.20
2023-06-15T23:16:38.116Z,6.00
2023-06-15T23:19:06.845Z,7.00
2023-06-15T23:21:35.451Z,6.00
2023-06-15T23:24:06.803Z,6.40
2023-06-15T23:26:37.873Z,3.60
2023-06-15T23:29:05.607Z,7.80
2023-06-15T23:31:33.579Z,7.80
2023-06-15T23:34:01.474Z,4.75
2023-06-15T23:36:29.166Z,8.80
2023-06-15T23:38:57.193Z,6.50
2023-06-15T23:41:24.838Z,7.00
2023-06-15T23:43:52.903Z,6.50
2023-06-15T23:46:20.839Z,7.00
2023-06-15T23:48:48.602Z,7.50
2023-06-15T23:51:16.339Z,9.00
2023-06-15T23:53:44.092Z,6.00
2023-06-15T23:56:12.502Z,10.25
2023-06-15T23:58:40.249Z,8.00
